sensor_id;sensor_type;location;lat;lon;timestamp;P1;durP1;ratioP1;P2;durP2;ratioP2
47778;SDS011;33538;48.432;11.350;2023-10-13T00:01:57;5.88;;;2.08;;
47778;SDS011;33538;48.432;11.350;2023-10-13T00:04:27;4.65;;;2.53;;
47778;SDS011;33538;48.432;11.350;2023-10-13T00:06:55;5.20;;;2.22;;
47778;SDS011;33538;48.432;11.350;2023-10-13T00:09:22;5.25;;;2.20;;
47778;SDS011;33538;48.432;11.350;2023-10-13T00:11:49;4.18;;;2.20;;
47778;SDS011;33538;48.432;11.350;2023-10-13T00:14:15;7.28;;;2.42;;
47778;SDS011;33538;48.432;11.350;2023-10-13T00:16:42;4.68;;;2.58;;
47778;SDS011;33538;48.432;11.350;2023-10-13T00:19:10;6.13;;;2.83;;
47778;SDS011;33538;48.432;11.350;2023-10-13T00:21:38;5.72;;;2.33;;
47778;SDS011;33538;48.432;11.350;2023-10-13T00:24:05;2.60;;;1.90;;
47778;SDS011;33538;48.432;11.350;2023-10-13T00:26:33;4.15;;;2.00;;
47778;SDS011;33538;48.432;11.350;2023-10-13T00:29:00;6.63;;;2.67;;
47778;SDS011;33538;48.432;11.350;2023-10-13T00:31:28;5.28;;;2.35;;
47778;SDS011;33538;48.432;11.350;2023-10-13T00:33:55;5.25;;;2.08;;
47778;SDS011;33538;48.432;11.350;2023-10-13T00:36:21;6.47;;;2.25;;
47778;SDS011;33538;48.432;11.350;2023-10-13T00:38:50;6.45;;;2.20;;
47778;SDS011;33538;48.432;11.350;2023-10-13T00:41:16;3.65;;;1.90;;
47778;SDS011;33538;48.432;11.350;2023-10-13T00:43:44;3.95;;;2.10;;
47778;SDS011;33538;48.432;11.350;2023-10-13T00:46:11;5.22;;;2.22;;
47778;SDS011;33538;48.432;11.350;2023-10-13T00:48:40;4.32;;;1.98;;
47778;SDS011;33538;48.432;11.350;2023-10-13T00:51:09;3.83;;;1.95;;
47778;SDS011;33538;48.432;11.350;2023-10-13T00:53:37;4.25;;;2.30;;
47778;SDS011;33538;48.432;11.350;2023-10-13T00:56:07;7.18;;;1.98;;
47778;SDS011;33538;48.432;11.350;2023-10-13T00:58:34;7.25;;;2.15;;
47778;SDS011;33538;48.432;11.350;2023-10-13T01:01:02;5.78;;;2.35;;
47778;SDS011;33538;48.432;11.350;2023-10-13T01:03:29;3.40;;;2.10;;
47778;SDS011;33538;48.432;11.350;2023-10-13T01:05:56;6.78;;;2.28;;
47778;SDS011;33538;48.432;11.350;2023-10-13T01:08:32;8.02;;;1.90;;
47778;SDS011;33538;48.432;11.350;2023-10-13T01:11:03;6.50;;;2.40;;
47778;SDS011;33538;48.432;11.350;2023-10-13T01:13:31;6.82;;;2.25;;
47778;SDS011;33538;48.432;11.350;2023-10-13T01:15:58;7.00;;;2.22;;
47778;SDS011;33538;48.432;11.350;2023-10-13T01:18:25;3.45;;;1.90;;
47778;SDS011;33538;48.432;11.350;2023-10-13T01:20:52;9.80;;;2.70;;
47778;SDS011;33538;48.432;11.350;2023-10-13T01:23:20;3.88;;;2.22;;
47778;SDS011;33538;48.432;11.350;2023-10-13T01:25:47;5.97;;;2.35;;
47778;SDS011;33538;48.432;11.350;2023-10-13T01:28:13;4.72;;;1.83;;
47778;SDS011;33538;48.432;11.350;2023-10-13T01:30:40;5.20;;;2.30;;
47778;SDS011;33538;48.432;11.350;2023-10-13T01:33:08;6.07;;;2.42;;
47778;SDS011;33538;48.432;11.350;2023-10-13T01:35:35;5.20;;;2.50;;
47778;SDS011;33538;48.432;11.350;2023-10-13T01:38:03;5.55;;;2.30;;
47778;SDS011;33538;48.432;11.350;2023-10-13T01:40:31;5.40;;;1.92;;
47778;SDS011;33538;48.432;11.350;2023-10-13T01:42:58;4.78;;;2.70;;
47778;SDS011;33538;48.432;11.350;2023-10-13T01:45:25;4.90;;;2.38;;
47778;SDS011;33538;48.432;11.350;2023-10-13T01:47:51;4.75;;;2.33;;
47778;SDS011;33538;48.432;11.350;2023-10-13T01:50:18;6.10;;;2.17;;
47778;SDS011;33538;48.432;11.350;2023-10-13T01:52:45;4.32;;;2.45;;
47778;SDS011;33538;48.432;11.350;2023-10-13T01:55:12;4.95;;;2.10;;
47778;SDS011;33538;48.432;11.350;2023-10-13T01:57:41;6.63;;;2.38;;
47778;SDS011;33538;48.432;11.350;2023-10-13T02:00:08;6.97;;;3.05;;
47778;SDS011;33538;48.432;11.350;2023-10-13T02:02:36;4.82;;;2.10;;
47778;SDS011;33538;48.432;11.350;2023-10-13T02:05:03;7.38;;;2.72;;
47778;SDS011;33538;48.432;11.350;2023-10-13T02:07:30;5.35;;;2.40;;
47778;SDS011;33538;48.432;11.350;2023-10-13T02:09:57;4.13;;;2.45;;
47778;SDS011;33538;48.432;11.350;2023-10-13T02:12:24;5.43;;;2.33;;
47778;SDS011;33538;48.432;11.350;2023-10-13T02:14:52;2.47;;;1.85;;
47778;SDS011;33538;48.432;11.350;2023-10-13T02:17:19;5.03;;;2.90;;
47778;SDS011;33538;48.432;11.350;2023-10-13T02:19:46;7.53;;;2.75;;
47778;SDS011;33538;48.432;11.350;2023-10-13T02:22:13;4.78;;;2.00;;
47778;SDS011;33538;48.432;11.350;2023-10-13T02:24:40;7.35;;;2.47;;
47778;SDS011;33538;48.432;11.350;2023-10-13T02:27:07;3.10;;;2.15;;
47778;SDS011;33538;48.432;11.350;2023-10-13T02:29:34;5.45;;;1.95;;
47778;SDS011;33538;48.432;11.350;2023-10-13T02:32:02;6.25;;;2.83;;
47778;SDS011;33538;48.432;11.350;2023-10-13T02:34:29;3.30;;;2.13;;
47778;SDS011;33538;48.432;11.350;2023-10-13T02:36:56;5.75;;;2.40;;
47778;SDS011;33538;48.432;11.350;2023-10-13T02:39:23;4.88;;;2.72;;
47778;SDS011;33538;48.432;11.350;2023-10-13T02:41:50;10.05;;;2.63;;
47778;SDS011;33538;48.432;11.350;2023-10-13T02:44:17;4.38;;;2.15;;
47778;SDS011;33538;48.432;11.350;2023-10-13T02:46:44;3.17;;;2.30;;
47778;SDS011;33538;48.432;11.350;2023-10-13T02:49:12;6.07;;;2.45;;
47778;SDS011;33538;48.432;11.350;2023-10-13T02:51:39;3.55;;;2.35;;
47778;SDS011;33538;48.432;11.350;2023-10-13T02:54:06;5.22;;;2.13;;
47778;SDS011;33538;48.432;11.350;2023-10-13T02:56:32;4.32;;;2.42;;
47778;SDS011;33538;48.432;11.350;2023-10-13T02:58:59;6.57;;;3.20;;
47778;SDS011;33538;48.432;11.350;2023-10-13T03:01:26;4.35;;;2.15;;
47778;SDS011;33538;48.432;11.350;2023-10-13T03:03:53;3.17;;;2.17;;
47778;SDS011;33538;48.432;11.350;2023-10-13T03:06:22;7.00;;;2.30;;
47778;SDS011;33538;48.432;11.350;2023-10-13T03:08:50;3.33;;;2.03;;
47778;SDS011;33538;48.432;11.350;2023-10-13T03:11:18;4.60;;;2.35;;
47778;SDS011;33538;48.432;11.350;2023-10-13T03:13:44;6.57;;;2.38;;
47778;SDS011;33538;48.432;11.350;2023-10-13T03:16:12;6.38;;;2.75;;
47778;SDS011;33538;48.432;11.350;2023-10-13T03:18:43;8.45;;;2.00;;
47778;SDS011;33538;48.432;11.350;2023-10-13T03:21:10;6.30;;;2.83;;
47778;SDS011;33538;48.432;11.350;2023-10-13T03:23:38;5.57;;;2.78;;
47778;SDS011;33538;48.432;11.350;2023-10-13T03:26:08;4.47;;;2.15;;
47778;SDS011;33538;48.432;11.350;2023-10-13T03:28:35;4.57;;;2.33;;
47778;SDS011;33538;48.432;11.350;2023-10-13T03:31:02;3.22;;;2.15;;
47778;SDS011;33538;48.432;11.350;2023-10-13T03:33:29;4.20;;;2.08;;
47778;SDS011;33538;48.432;11.350;2023-10-13T03:35:56;9.40;;;2.70;;
47778;SDS011;33538;48.432;11.350;2023-10-13T03:38:22;4.78;;;2.70;;
47778;SDS011;33538;48.432;11.350;2023-10-13T03:40:51;4.20;;;2.17;;
47778;SDS011;33538;48.432;11.350;2023-10-13T03:43:17;4.07;;;2.08;;
47778;SDS011;33538;48.432;11.350;2023-10-13T03:45:44;3.45;;;2.30;;
47778;SDS011;33538;48.432;11.350;2023-10-13T03:48:12;3.45;;;2.15;;
47778;SDS011;33538;48.432;11.350;2023-10-13T03:50:40;6.25;;;2.10;;
47778;SDS011;33538;48.432;11.350;2023-10-13T03:53:06;4.28;;;2.25;;
47778;SDS011;33538;48.432;11.350;2023-10-13T03:55:33;3.88;;;2.33;;
47778;SDS011;33538;48.432;11.350;2023-10-13T03:58:01;2.97;;;1.95;;
47778;SDS011;33538;48.432;11.350;2023-10-13T04:00:28;5.75;;;2.65;;
47778;SDS011;33538;48.432;11.350;2023-10-13T04:02:55;4.75;;;2.20;;
47778;SDS011;33538;48.432;11.350;2023-10-13T04:05:22;4.88;;;2.22;;
47778;SDS011;33538;48.432;11.350;2023-10-13T04:07:49;3.60;;;2.25;;
47778;SDS011;33538;48.432;11.350;2023-10-13T04:10:16;8.80;;;2.83;;
47778;SDS011;33538;48.432;11.350;2023-10-13T04:12:43;4.53;;;2.20;;
47778;SDS011;33538;48.432;11.350;2023-10-13T04:15:11;5.05;;;2.22;;
47778;SDS011;33538;48.432;11.350;2023-10-13T04:17:37;7.15;;;2.50;;
47778;SDS011;33538;48.432;11.350;2023-10-13T04:20:05;4.10;;;2.40;;
47778;SDS011;33538;48.432;11.350;2023-10-13T04:22:32;4.72;;;2.20;;
47778;SDS011;33538;48.432;11.350;2023-10-13T04:25:00;5.93;;;2.60;;
47778;SDS011;33538;48.432;11.350;2023-10-13T04:27:27;3.15;;;1.95;;
47778;SDS011;33538;48.432;11.350;2023-10-13T04:29:53;5.53;;;2.05;;
47778;SDS011;33538;48.432;11.350;2023-10-13T04:32:22;5.50;;;1.98;;
47778;SDS011;33538;48.432;11.350;2023-10-13T04:34:48;4.75;;;2.30;;
47778;SDS011;33538;48.432;11.350;2023-10-13T04:37:15;4.10;;;2.40;;
47778;SDS011;33538;48.432;11.350;2023-10-13T04:39:42;4.72;;;2.30;;
47778;SDS011;33538;48.432;11.350;2023-10-13T04:42:09;3.55;;;1.90;;
47778;SDS011;33538;48.432;11.350;2023-10-13T04:44:35;5.63;;;2.17;;
47778;SDS011;33538;48.432;11.350;2023-10-13T04:47:02;3.92;;;2.38;;
47778;SDS011;33538;48.432;11.350;2023-10-13T04:49:31;5.15;;;2.83;;
47778;SDS011;33538;48.432;11.350;2023-10-13T04:51:59;3.10;;;1.88;;
47778;SDS011;33538;48.432;11.350;2023-10-13T04:54:27;3.95;;;2.20;;
47778;SDS011;33538;48.432;11.350;2023-10-13T04:56:54;5.88;;;2.45;;
47778;SDS011;33538;48.432;11.350;2023-10-13T04:59:21;6.93;;;2.88;;
47778;SDS011;33538;48.432;11.350;2023-10-13T05:01:48;3.03;;;1.90;;
47778;SDS011;33538;48.432;11.350;2023-10-13T05:04:15;8.80;;;2.50;;
47778;SDS011;33538;48.432;11.350;2023-10-13T05:06:43;6.20;;;2.60;;
47778;SDS011;33538;48.432;11.350;2023-10-13T05:09:10;7.75;;;3.58;;
47778;SDS011;33538;48.432;11.350;2023-10-13T05:11:38;5.97;;;2.05;;
47778;SDS011;33538;48.432;11.350;2023-10-13T05:14:05;8.05;;;3.13;;
47778;SDS011;33538;48.432;11.350;2023-10-13T05:16:31;5.15;;;2.50;;
47778;SDS011;33538;48.432;11.350;2023-10-13T05:18:58;4.57;;;2.10;;
47778;SDS011;33538;48.432;11.350;2023-10-13T05:21:25;5.55;;;3.25;;
47778;SDS011;33538;48.432;11.350;2023-10-13T05:23:53;3.30;;;2.03;;
47778;SDS011;33538;48.432;11.350;2023-10-13T05:26:20;4.78;;;2.45;;
47778;SDS011;33538;48.432;11.350;2023-10-13T05:28:47;5.25;;;2.25;;
47778;SDS011;33538;48.432;11.350;2023-10-13T05:31:14;3.70;;;2.28;;
47778;SDS011;33538;48.432;11.350;2023-10-13T05:33:40;3.67;;;2.20;;
47778;SDS011;33538;48.432;11.350;2023-10-13T05:36:09;14.02;;;2.47;;
47778;SDS011;33538;48.432;11.350;2023-10-13T05:38:37;5.75;;;2.55;;
47778;SDS011;33538;48.432;11.350;2023-10-13T05:41:05;5.53;;;2.80;;
47778;SDS011;33538;48.432;11.350;2023-10-13T05:43:32;3.20;;;2.30;;
47778;SDS011;33538;48.432;11.350;2023-10-13T05:46:01;5.88;;;2.60;;
47778;SDS011;33538;48.432;11.350;2023-10-13T05:48:31;14.23;;;3.33;;
47778;SDS011;33538;48.432;11.350;2023-10-13T05:50:59;5.28;;;2.90;;
47778;SDS011;33538;48.432;11.350;2023-10-13T05:53:26;5.00;;;2.30;;
47778;SDS011;33538;48.432;11.350;2023-10-13T05:55:53;4.00;;;2.30;;
47778;SDS011;33538;48.432;11.350;2023-10-13T05:58:28;3.37;;;2.07;;
47778;SDS011;33538;48.432;11.350;2023-10-13T06:00:55;4.53;;;2.45;;
47778;SDS011;33538;48.432;11.350;2023-10-13T06:03:22;4.30;;;2.17;;
47778;SDS011;33538;48.432;11.350;2023-10-13T06:05:49;5.68;;;2.63;;
47778;SDS011;33538;48.432;11.350;2023-10-13T06:08:16;13.85;;;2.40;;
47778;SDS011;33538;48.432;11.350;2023-10-13T06:10:43;5.68;;;2.67;;
47778;SDS011;33538;48.432;11.350;2023-10-13T06:13:10;3.35;;;1.95;;
47778;SDS011;33538;48.432;11.350;2023-10-13T06:15:39;6.05;;;2.25;;
47778;SDS011;33538;48.432;11.350;2023-10-13T06:18:05;5.10;;;2.33;;
47778;SDS011;33538;48.432;11.350;2023-10-13T06:20:32;3.33;;;2.10;;
47778;SDS011;33538;48.432;11.350;2023-10-13T06:23:05;7.07;;;2.30;;
47778;SDS011;33538;48.432;11.350;2023-10-13T06:25:31;4.22;;;2.50;;
47778;SDS011;33538;48.432;11.350;2023-10-13T06:27:58;6.15;;;2.40;;
47778;SDS011;33538;48.432;11.350;2023-10-13T06:30:25;3.65;;;2.08;;
47778;SDS011;33538;48.432;11.350;2023-10-13T06:32:53;7.22;;;2.22;;
47778;SDS011;33538;48.432;11.350;2023-10-13T06:35:20;7.75;;;2.53;;
47778;SDS011;33538;48.432;11.350;2023-10-13T06:37:47;7.68;;;3.13;;
47778;SDS011;33538;48.432;11.350;2023-10-13T06:40:14;4.22;;;2.25;;
47778;SDS011;33538;48.432;11.350;2023-10-13T06:42:41;8.05;;;2.20;;
47778;SDS011;33538;48.432;11.350;2023-10-13T06:45:08;7.10;;;1.95;;
47778;SDS011;33538;48.432;11.350;2023-10-13T06:47:35;3.08;;;1.73;;
47778;SDS011;33538;48.432;11.350;2023-10-13T06:50:04;7.50;;;2.28;;
47778;SDS011;33538;48.432;11.350;2023-10-13T06:52:31;5.97;;;1.90;;
47778;SDS011;33538;48.432;11.350;2023-10-13T06:54:58;4.30;;;1.98;;
47778;SDS011;33538;48.432;11.350;2023-10-13T06:57:25;7.97;;;2.25;;
47778;SDS011;33538;48.432;11.350;2023-10-13T06:59:52;5.55;;;2.30;;
47778;SDS011;33538;48.432;11.350;2023-10-13T07:02:19;4.78;;;2.33;;
47778;SDS011;33538;48.432;11.350;2023-10-13T07:04:53;5.30;;;2.20;;
47778;SDS011;33538;48.432;11.350;2023-10-13T07:07:21;4.85;;;2.22;;
47778;SDS011;33538;48.432;11.350;2023-10-13T07:09:48;4.18;;;2.10;;
47778;SDS011;33538;48.432;11.350;2023-10-13T07:12:15;5.15;;;2.15;;
47778;SDS011;33538;48.432;11.350;2023-10-13T07:14:45;6.50;;;2.22;;
47778;SDS011;33538;48.432;11.350;2023-10-13T07:17:12;8.00;;;2.55;;
47778;SDS011;33538;48.432;11.350;2023-10-13T07:19:39;10.13;;;2.70;;
47778;SDS011;33538;48.432;11.350;2023-10-13T07:22:06;5.43;;;2.65;;
47778;SDS011;33538;48.432;11.350;2023-10-13T07:24:34;6.78;;;2.30;;
47778;SDS011;33538;48.432;11.350;2023-10-13T07:27:02;4.40;;;2.10;;
47778;SDS011;33538;48.432;11.350;2023-10-13T07:29:29;5.10;;;2.38;;
47778;SDS011;33538;48.432;11.350;2023-10-13T07:31:56;6.35;;;2.38;;
47778;SDS011;33538;48.432;11.350;2023-10-13T07:34:23;4.93;;;1.80;;
47778;SDS011;33538;48.432;11.350;2023-10-13T07:36:51;3.20;;;1.83;;
47778;SDS011;33538;48.432;11.350;2023-10-13T07:39:19;3.13;;;1.85;;
47778;SDS011;33538;48.432;11.350;2023-10-13T07:41:51;6.72;;;2.08;;
47778;SDS011;33538;48.432;11.350;2023-10-13T07:44:18;4.97;;;2.53;;
47778;SDS011;33538;48.432;11.350;2023-10-13T07:46:45;6.55;;;2.17;;
47778;SDS011;33538;48.432;11.350;2023-10-13T07:49:12;4.07;;;2.13;;
47778;SDS011;33538;48.432;11.350;2023-10-13T07:51:39;4.82;;;2.20;;
47778;SDS011;33538;48.432;11.350;2023-10-13T07:54:06;3.22;;;2.15;;
47778;SDS011;33538;48.432;11.350;2023-10-13T07:56:33;4.10;;;1.80;;
47778;SDS011;33538;48.432;11.350;2023-10-13T07:59:04;3.10;;;1.95;;
47778;SDS011;33538;48.432;11.350;2023-10-13T08:01:31;5.90;;;2.20;;
47778;SDS011;33538;48.432;11.350;2023-10-13T08:03:57;2.38;;;1.60;;
47778;SDS011;33538;48.432;11.350;2023-10-13T08:06:24;5.55;;;2.35;;
47778;SDS011;33538;48.432;11.350;2023-10-13T08:08:51;6.38;;;1.98;;
47778;SDS011;33538;48.432;11.350;2023-10-13T08:11:18;3.78;;;1.95;;
47778;SDS011;33538;48.432;11.350;2023-10-13T08:13:45;6.63;;;2.55;;
47778;SDS011;33538;48.432;11.350;2023-10-13T08:16:29;4.10;;;2.30;;
47778;SDS011;33538;48.432;11.350;2023-10-13T08:18:56;5.65;;;2.00;;
47778;SDS011;33538;48.432;11.350;2023-10-13T08:21:23;3.70;;;1.95;;
47778;SDS011;33538;48.432;11.350;2023-10-13T08:23:50;5.57;;;2.20;;
47778;SDS011;33538;48.432;11.350;2023-10-13T08:26:17;5.55;;;1.70;;
47778;SDS011;33538;48.432;11.350;2023-10-13T08:28:44;3.53;;;1.63;;
47778;SDS011;33538;48.432;11.350;2023-10-13T08:31:23;2.97;;;1.80;;
47778;SDS011;33538;48.432;11.350;2023-10-13T08:33:51;4.75;;;1.98;;
47778;SDS011;33538;48.432;11.350;2023-10-13T08:36:18;7.03;;;1.70;;
47778;SDS011;33538;48.432;11.350;2023-10-13T08:38:45;4.55;;;2.13;;
47778;SDS011;33538;48.432;11.350;2023-10-13T08:41:12;4.35;;;1.92;;
47778;SDS011;33538;48.432;11.350;2023-10-13T08:43:40;6.70;;;2.20;;
47778;SDS011;33538;48.432;11.350;2023-10-13T08:46:09;5.18;;;1.80;;
47778;SDS011;33538;48.432;11.350;2023-10-13T08:48:36;7.18;;;1.80;;
47778;SDS011;33538;48.432;11.350;2023-10-13T08:51:04;8.20;;;2.05;;
47778;SDS011;33538;48.432;11.350;2023-10-13T08:53:32;6.20;;;2.33;;
47778;SDS011;33538;48.432;11.350;2023-10-13T08:55:59;3.85;;;1.90;;
47778;SDS011;33538;48.432;11.350;2023-10-13T08:58:26;4.47;;;1.77;;
47778;SDS011;33538;48.432;11.350;2023-10-13T09:00:53;5.80;;;1.50;;
47778;SDS011;33538;48.432;11.350;2023-10-13T09:03:21;6.65;;;1.90;;
47778;SDS011;33538;48.432;11.350;2023-10-13T09:05:48;5.75;;;1.70;;
47778;SDS011;33538;48.432;11.350;2023-10-13T09:08:25;5.63;;;1.67;;
47778;SDS011;33538;48.432;11.350;2023-10-13T09:10:52;2.13;;;1.33;;
47778;SDS011;33538;48.432;11.350;2023-10-13T09:13:32;6.55;;;1.75;;
47778;SDS011;33538;48.432;11.350;2023-10-13T09:16:08;3.45;;;1.42;;
47778;SDS011;33538;48.432;11.350;2023-10-13T09:18:35;5.63;;;1.67;;
47778;SDS011;33538;48.432;11.350;2023-10-13T09:21:02;6.68;;;1.98;;
47778;SDS011;33538;48.432;11.350;2023-10-13T09:23:30;5.00;;;1.42;;
47778;SDS011;33538;48.432;11.350;2023-10-13T09:25:57;8.70;;;1.67;;
47778;SDS011;33538;48.432;11.350;2023-10-13T09:28:32;4.53;;;1.48;;
47778;SDS011;33538;48.432;11.350;2023-10-13T09:30:58;6.28;;;1.83;;
47778;SDS011;33538;48.432;11.350;2023-10-13T09:33:26;7.38;;;1.73;;
47778;SDS011;33538;48.432;11.350;2023-10-13T09:35:53;4.32;;;1.38;;
47778;SDS011;33538;48.432;11.350;2023-10-13T09:38:20;6.70;;;2.25;;
47778;SDS011;33538;48.432;11.350;2023-10-13T09:40:48;5.30;;;1.40;;
47778;SDS011;33538;48.432;11.350;2023-10-13T09:43:16;6.75;;;1.70;;
47778;SDS011;33538;48.432;11.350;2023-10-13T09:45:43;3.80;;;1.35;;
47778;SDS011;33538;48.432;11.350;2023-10-13T09:48:12;3.28;;;1.70;;
47778;SDS011;33538;48.432;11.350;2023-10-13T09:50:43;5.25;;;1.77;;
47778;SDS011;33538;48.432;11.350;2023-10-13T09:53:12;4.07;;;1.80;;
47778;SDS011;33538;48.432;11.350;2023-10-13T09:55:41;3.38;;;1.63;;
47778;SDS011;33538;48.432;11.350;2023-10-13T09:58:11;3.72;;;1.35;;
47778;SDS011;33538;48.432;11.350;2023-10-13T10:00:43;3.55;;;1.35;;
47778;SDS011;33538;48.432;11.350;2023-10-13T10:03:13;9.43;;;1.60;;
47778;SDS011;33538;48.432;11.350;2023-10-13T10:05:40;7.32;;;1.85;;
47778;SDS011;33538;48.432;11.350;2023-10-13T10:08:08;3.80;;;1.33;;
47778;SDS011;33538;48.432;11.350;2023-10-13T10:10:42;10.27;;;1.98;;
47778;SDS011;33538;48.432;11.350;2023-10-13T10:13:21;3.88;;;1.42;;
47778;SDS011;33538;48.432;11.350;2023-10-13T10:15:58;3.10;;;1.13;;
47778;SDS011;33538;48.432;11.350;2023-10-13T10:18:32;2.75;;;1.52;;
47778;SDS011;33538;48.432;11.350;2023-10-13T10:21:03;3.53;;;1.58;;
47778;SDS011;33538;48.432;11.350;2023-10-13T10:23:30;5.88;;;1.95;;
47778;SDS011;33538;48.432;11.350;2023-10-13T10:25:57;6.53;;;1.63;;
47778;SDS011;33538;48.432;11.350;2023-10-13T10:28:25;2.70;;;1.73;;
47778;SDS011;33538;48.432;11.350;2023-10-13T10:31:04;9.02;;;1.90;;
47778;SDS011;33538;48.432;11.350;2023-10-13T10:33:31;8.23;;;1.73;;
47778;SDS011;33538;48.432;11.350;2023-10-13T10:35:59;8.00;;;1.20;;
47778;SDS011;33538;48.432;11.350;2023-10-13T10:38:27;4.57;;;1.15;;
47778;SDS011;33538;48.432;11.350;2023-10-13T10:40:54;2.33;;;1.30;;
47778;SDS011;33538;48.432;11.350;2023-10-13T10:43:21;1.92;;;1.30;;
47778;SDS011;33538;48.432;11.350;2023-10-13T10:45:59;3.38;;;1.25;;
47778;SDS011;33538;48.432;11.350;2023-10-13T10:48:26;4.40;;;1.63;;
47778;SDS011;33538;48.432;11.350;2023-10-13T10:50:54;6.78;;;1.52;;
47778;SDS011;33538;48.432;11.350;2023-10-13T10:53:21;5.32;;;1.55;;
47778;SDS011;33538;48.432;11.350;2023-10-13T10:55:48;5.47;;;1.50;;
47778;SDS011;33538;48.432;11.350;2023-10-13T10:58:15;8.05;;;2.10;;
47778;SDS011;33538;48.432;11.350;2023-10-13T11:00:43;2.67;;;1.50;;
47778;SDS011;33538;48.432;11.350;2023-10-13T11:03:10;4.55;;;1.60;;
47778;SDS011;33538;48.432;11.350;2023-10-13T11:05:44;6.88;;;1.48;;
47778;SDS011;33538;48.432;11.350;2023-10-13T11:08:20;2.55;;;1.17;;
47778;SDS011;33538;48.432;11.350;2023-10-13T11:10:48;5.03;;;1.40;;
47778;SDS011;33538;48.432;11.350;2023-10-13T11:13:15;5.38;;;1.45;;
47778;SDS011;33538;48.432;11.350;2023-10-13T11:15:43;3.42;;;1.52;;
47778;SDS011;33538;48.432;11.350;2023-10-13T11:18:10;3.83;;;1.25;;
47778;SDS011;33538;48.432;11.350;2023-10-13T11:20:41;2.72;;;1.33;;
47778;SDS011;33538;48.432;11.350;2023-10-13T11:23:10;5.35;;;1.63;;
47778;SDS011;33538;48.432;11.350;2023-10-13T11:25:38;2.95;;;1.25;;
47778;SDS011;33538;48.432;11.350;2023-10-13T11:28:11;1.58;;;1.20;;
47778;SDS011;33538;48.432;11.350;2023-10-13T11:30:41;3.55;;;1.33;;
47778;SDS011;33538;48.432;11.350;2023-10-13T11:33:10;5.78;;;1.40;;
47778;SDS011;33538;48.432;11.350;2023-10-13T11:35:38;2.00;;;1.15;;
47778;SDS011;33538;48.432;11.350;2023-10-13T11:38:05;3.85;;;1.48;;
47778;SDS011;33538;48.432;11.350;2023-10-13T11:40:32;2.85;;;1.30;;
47778;SDS011;33538;48.432;11.350;2023-10-13T11:42:59;5.07;;;1.35;;
47778;SDS011;33538;48.432;11.350;2023-10-13T11:45:26;6.38;;;1.75;;
47778;SDS011;33538;48.432;11.350;2023-10-13T11:47:54;4.10;;;1.17;;
47778;SDS011;33538;48.432;11.350;2023-10-13T11:50:21;8.00;;;1.70;;
47778;SDS011;33538;48.432;11.350;2023-10-13T11:52:48;4.55;;;1.23;;
47778;SDS011;33538;48.432;11.350;2023-10-13T11:55:14;2.30;;;1.30;;
47778;SDS011;33538;48.432;11.350;2023-10-13T11:57:41;5.15;;;1.88;;
47778;SDS011;33538;48.432;11.350;2023-10-13T12:00:08;3.50;;;1.50;;
47778;SDS011;33538;48.432;11.350;2023-10-13T12:02:36;3.22;;;2.05;;
47778;SDS011;33538;48.432;11.350;2023-10-13T12:05:05;4.38;;;1.60;;
47778;SDS011;33538;48.432;11.350;2023-10-13T12:07:32;5.65;;;1.70;;
47778;SDS011;33538;48.432;11.350;2023-10-13T12:09:59;2.47;;;1.50;;
47778;SDS011;33538;48.432;11.350;2023-10-13T12:12:26;1.95;;;1.30;;
47778;SDS011;33538;48.432;11.350;2023-10-13T12:14:53;3.20;;;1.38;;
47778;SDS011;33538;48.432;11.350;2023-10-13T12:17:21;6.20;;;1.20;;
47778;SDS011;33538;48.432;11.350;2023-10-13T12:19:49;3.17;;;1.20;;
47778;SDS011;33538;48.432;11.350;2023-10-13T12:22:19;3.72;;;1.30;;
47778;SDS011;33538;48.432;11.350;2023-10-13T12:24:46;3.88;;;1.45;;
47778;SDS011;33538;48.432;11.350;2023-10-13T12:27:13;7.85;;;1.95;;
47778;SDS011;33538;48.432;11.350;2023-10-13T12:29:40;10.20;;;1.90;;
47778;SDS011;33538;48.432;11.350;2023-10-13T12:32:06;4.55;;;1.30;;
47778;SDS011;33538;48.432;11.350;2023-10-13T12:34:34;2.58;;;1.20;;
47778;SDS011;33538;48.432;11.350;2023-10-13T12:37:01;2.50;;;1.10;;
47778;SDS011;33538;48.432;11.350;2023-10-13T12:39:29;6.25;;;1.40;;
47778;SDS011;33538;48.432;11.350;2023-10-13T12:41:56;6.57;;;1.80;;
47778;SDS011;33538;48.432;11.350;2023-10-13T12:44:23;4.35;;;1.25;;
47778;SDS011;33538;48.432;11.350;2023-10-13T12:46:51;3.83;;;1.50;;
47778;SDS011;33538;48.432;11.350;2023-10-13T12:49:18;4.43;;;1.60;;
47778;SDS011;33538;48.432;11.350;2023-10-13T12:51:45;2.78;;;1.27;;
47778;SDS011;33538;48.432;11.350;2023-10-13T12:54:12;7.22;;;1.52;;
47778;SDS011;33538;48.432;11.350;2023-10-13T12:56:43;2.28;;;1.10;;
47778;SDS011;33538;48.432;11.350;2023-10-13T12:59:10;5.57;;;1.50;;
47778;SDS011;33538;48.432;11.350;2023-10-13T13:01:37;6.90;;;1.40;;
47778;SDS011;33538;48.432;11.350;2023-10-13T13:04:04;2.55;;;1.50;;
47778;SDS011;33538;48.432;11.350;2023-10-13T13:06:31;4.03;;;1.65;;
47778;SDS011;33538;48.432;11.350;2023-10-13T13:08:58;6.10;;;1.30;;
47778;SDS011;33538;48.432;11.350;2023-10-13T13:11:26;2.30;;;1.30;;
47778;SDS011;33538;48.432;11.350;2023-10-13T13:13:54;3.75;;;1.50;;
47778;SDS011;33538;48.432;11.350;2023-10-13T13:16:21;2.78;;;1.15;;
47778;SDS011;33538;48.432;11.350;2023-10-13T13:18:47;3.47;;;1.38;;
47778;SDS011;33538;48.432;11.350;2023-10-13T13:21:14;2.55;;;1.15;;
47778;SDS011;33538;48.432;11.350;2023-10-13T13:23:41;3.67;;;1.25;;
47778;SDS011;33538;48.432;11.350;2023-10-13T13:26:08;3.20;;;1.52;;
47778;SDS011;33538;48.432;11.350;2023-10-13T13:28:35;4.88;;;1.38;;
47778;SDS011;33538;48.432;11.350;2023-10-13T13:31:03;3.50;;;1.58;;
47778;SDS011;33538;48.432;11.350;2023-10-13T13:33:30;4.13;;;1.80;;
47778;SDS011;33538;48.432;11.350;2023-10-13T13:35:56;3.72;;;1.52;;
47778;SDS011;33538;48.432;11.350;2023-10-13T13:38:23;6.30;;;2.00;;
47778;SDS011;33538;48.432;11.350;2023-10-13T13:40:50;5.03;;;1.63;;
47778;SDS011;33538;48.432;11.350;2023-10-13T13:43:17;7.28;;;2.00;;
47778;SDS011;33538;48.432;11.350;2023-10-13T13:45:44;6.63;;;1.73;;
47778;SDS011;33538;48.432;11.350;2023-10-13T13:48:12;4.13;;;1.63;;
47778;SDS011;33538;48.432;11.350;2023-10-13T13:50:42;3.40;;;1.40;;
47778;SDS011;33538;48.432;11.350;2023-10-13T13:53:09;3.20;;;1.45;;
47778;SDS011;33538;48.432;11.350;2023-10-13T13:55:36;4.30;;;1.45;;
47778;SDS011;33538;48.432;11.350;2023-10-13T13:58:03;3.60;;;1.52;;
47778;SDS011;33538;48.432;11.350;2023-10-13T14:00:29;3.50;;;1.58;;
47778;SDS011;33538;48.432;11.350;2023-10-13T14:02:56;3.25;;;1.02;;
47778;SDS011;33538;48.432;11.350;2023-10-13T14:05:25;3.15;;;1.50;;
47778;SDS011;33538;48.432;11.350;2023-10-13T14:07:52;2.88;;;1.42;;
47778;SDS011;33538;48.432;11.350;2023-10-13T14:10:20;4.32;;;1.33;;
47778;SDS011;33538;48.432;11.350;2023-10-13T14:12:47;3.75;;;1.55;;
47778;SDS011;33538;48.432;11.350;2023-10-13T14:15:14;5.28;;;1.77;;
47778;SDS011;33538;48.432;11.350;2023-10-13T14:17:41;2.03;;;1.35;;
47778;SDS011;33538;48.432;11.350;2023-10-13T14:20:08;4.95;;;1.35;;
47778;SDS011;33538;48.432;11.350;2023-10-13T14:22:36;3.58;;;1.63;;
47778;SDS011;33538;48.432;11.350;2023-10-13T14:25:04;3.22;;;1.38;;
47778;SDS011;33538;48.432;11.350;2023-10-13T14:27:31;7.03;;;1.60;;
47778;SDS011;33538;48.432;11.350;2023-10-13T14:29:58;6.32;;;1.95;;
47778;SDS011;33538;48.432;11.350;2023-10-13T14:32:24;3.28;;;1.70;;
47778;SDS011;33538;48.432;11.350;2023-10-13T14:34:51;2.70;;;1.52;;
47778;SDS011;33538;48.432;11.350;2023-10-13T14:37:18;6.13;;;1.35;;